Time;durP1;ratioP1;P1;durP2;ratioP2;P2;SDS_P1;SDS_P2;PMS_P1;PMS_P2;Temp;Humidity;BMP_temperature;BMP_pressure;BME280_temperature;BME280_humidity;BME280_pressure;Samples;Min_cycle;Max_cycle;Signal;HPM_P1;HPM_P2
2021/07/11 11:34:05;;;;;;;6.50;4.25;;;;;;;21.54;67.52;101537.19;5003566;28;121430;-91
2021/07/11 11:36:32;;;;;;;5.55;4.50;;;;;;;22.03;65.69;101532.84;4996548;28;120752;-92
2021/07/11 11:39:11;;;;;;;4.78;3.75;;;;;;;22.53;63.64;101540.38;4948744;27;120961;-92
2021/07/11 11:42:33;;;;;;;4.45;4.03;;;;;;;23.07;63.00;101534.31;5062142;27;104184;-95
2021/07/11 11:45:08;;;;;;;5.10;4.15;;;;;;;23.38;61.39;101527.50;5007466;27;129804;-92
2021/07/11 11:47:35;;;;;;;4.72;4.00;;;;;;;23.66;61.02;101528.09;4989416;28;106074;-93
2021/07/11 11:51:59;;;;;;;5.22;4.32;;;;;;;23.96;59.28;101533.66;4994278;27;104243;-92
2021/07/11 11:54:41;;;;;;;4.63;3.80;;;;;;;24.00;57.95;101527.78;4963882;28;106864;-93
2021/07/11 11:57:07;;;;;;;5.82;4.40;;;;;;;24.06;57.88;101523.63;4958660;28;107477;-94
2021/07/11 11:59:34;;;;;;;5.53;4.43;;;;;;;24.18;57.76;101532.69;4942526;28;107282;-93
2021/07/11 12:02:02;;;;;;;4.72;4.20;;;;;;;24.27;58.07;101537.94;4935400;28;107669;-93
2021/07/11 12:04:30;;;;;;;5.68;4.72;;;;;;;24.39;56.84;101535.81;4950742;28;106800;-93
2021/07/11 12:06:58;;;;;;;7.65;4.53;;;;;;;24.39;56.79;101536.56;4943250;28;105986;-92
2021/07/11 12:09:27;;;;;;;5.22;4.43;;;;;;;24.46;57.26;101543.63;4946584;28;105012;-93
2021/07/11 12:12:05;;;;;;;6.82;4.65;;;;;;;24.57;57.29;101537.88;4959765;28;107572;-92
2021/07/11 12:14:33;;;;;;;5.00;4.45;;;;;;;24.70;57.18;101537.97;4914845;28;106941;-95
2021/07/11 12:17:06;;;;;;;5.47;3.90;;;;;;;24.87;57.24;101542.63;4951811;28;107336;-94
2021/07/11 12:19:48;;;;;;;4.65;4.18;;;;;;;24.93;57.21;101532.84;4928520;28;106638;-93
2021/07/11 12:22:24;;;;;;;7.32;4.57;;;;;;;24.95;57.58;101515.47;4924885;28;107711;-93
2021/07/11 12:25:19;;;;;;;6.18;4.18;;;;;;;25.12;56.69;101532.09;4941774;28;107759;-92
2021/07/11 12:27:48;;;;;;;5.72;4.60;;;;;;;24.93;55.73;101495.59;4940999;28;107637;-93
2021/07/11 12:30:20;;;;;;;5.00;4.50;;;;;;;25.18;54.23;101546.81;4930501;28;106735;-93
2021/07/11 12:32:53;;;;;;;4.80;4.28;;;;;;;25.02;54.38;101518.44;4944141;28;108477;-92
2021/07/11 12:35:22;;;;;;;;;;;;;;;25.17;54.87;101550.91;4938375;28;106537;-92
2021/07/11 12:37:50;;;;;;;7.65;4.38;;;;;;;24.90;55.68;101505.06;4942005;28;107858;-94
2021/07/11 12:40:17;;;;;;;5.60;4.45;;;;;;;24.87;54.70;101506.16;4946545;28;107624;-94
2021/07/11 12:42:43;;;;;;;5.80;4.50;;;;;;;25.02;54.97;101540.88;4946617;28;108507;-93
2021/07/11 12:45:17;;;;;;;7.07;4.45;;;;;;;24.70;54.40;101504.31;4945470;28;106540;-92
2021/07/11 12:47:50;;;;;;;;;;;;;;;24.87;54.79;101540.56;4970591;28;105803;-93
2021/07/11 12:50:16;;;;;;;10.98;6.32;;;;;;;24.72;55.38;101517.81;4944522;28;104948;-93
2021/07/11 12:52:52;;;;;;;8.90;6.07;;;;;;;24.95;55.79;101544.28;4926334;28;106002;-94
2021/07/11 12:55:18;;;;;;;5.78;4.82;;;;;;;25.02;54.70;101535.28;4935875;28;106692;-94
2021/07/11 12:57:44;;;;;;;5.43;4.93;;;;;;;24.78;54.86;101487.63;4937382;28;105660;-94
2021/07/11 13:00:11;;;;;;;9.65;5.53;;;;;;;24.93;55.02;101506.81;4942494;28;106421;-94
2021/07/11 13:02:38;;;;;;;5.50;4.97;;;;;;;24.94;53.97;101506.28;4947787;28;105769;-94
2021/07/11 13:05:10;;;;;;;7.10;5.25;;;;;;;25.03;53.38;101524.81;4916086;28;107033;-93
2021/07/11 13:07:36;;;;;;;6.82;4.95;;;;;;;24.93;54.16;101515.25;4930703;28;106071;-93
2021/07/11 13:10:06;;;;;;;6.72;5.53;;;;;;;24.76;55.37;101493.00;4918961;28;106786;-92
2021/07/11 13:12:32;;;;;;;6.78;5.50;;;;;;;24.98;54.02;101512.34;4931955;28;107471;-93
2021/07/11 13:14:59;;;;;;;5.35;4.85;;;;;;;24.99;54.07;101519.50;4925769;28;106746;-93
2021/07/11 13:17:26;;;;;;;5.80;5.10;;;;;;;24.84;54.36;101499.53;4917532;28;107792;-94
2021/07/11 13:19:53;;;;;;;7.65;5.65;;;;;;;24.83;53.53;101502.84;4913923;28;106561;-93
2021/07/11 13:22:22;;;;;;;7.20;5.50;;;;;;;24.69;53.50;101483.16;4911042;28;107551;-93
2021/07/11 13:24:49;;;;;;;6.80;5.40;;;;;;;24.88;53.80;101516.06;4943219;28;104226;-93
2021/07/11 13:27:15;;;;;;;7.95;5.32;;;;;;;24.82;53.74;101510.53;4928727;28;105088;-94
2021/07/11 13:29:41;;;;;;;6.40;5.15;;;;;;;24.89;53.40;101521.16;4928002;28;107714;-93
2021/07/11 13:32:06;;;;;;;9.60;5.30;;;;;;;24.67;54.01;101490.59;4932759;28;107613;-93
2021/07/11 13:34:32;;;;;;;6.53;5.82;;;;;;;24.67;54.43;101482.19;4925115;28;107696;-94
2021/07/11 13:36:58;;;;;;;8.65;6.20;;;;;;;24.99;53.77;101521.56;4911515;28;107529;-94
2021/07/11 13:39:24;;;;;;;6.90;5.47;;;;;;;25.00;53.64;101515.41;4925338;28;106865;-94
2021/07/11 13:41:49;;;;;;;7.90;6.38;;;;;;;24.92;54.23;101500.44;4929722;28;108819;-94
2021/07/11 13:44:15;;;;;;;8.15;6.15;;;;;;;24.70;53.74;101465.03;4930646;28;106252;-95
2021/07/11 13:46:40;;;;;;;6.70;5.28;;;;;;;24.83;53.58;101494.44;4925847;28;108531;-93
2021/07/11 13:49:06;;;;;;;8.13;5.78;;;;;;;24.81;53.96;101486.56;4934552;28;107088;-93
2021/07/11 13:51:32;;;;;;;7.85;5.80;;;;;;;24.98;54.33;101506.72;4932784;28;108466;-93
2021/07/11 13:53:57;;;;;;;7.25;5.35;;;;;;;24.75;54.73;101466.25;4943780;28;107885;-94
2021/07/11 13:56:23;;;;;;;6.80;5.38;;;;;;;24.77;54.64;101466.47;4932832;28;108885;-95
2021/07/11 13:58:49;;;;;;;6.90;4.95;;;;;;;24.75;54.81;101463.44;4920050;28;106707;-93
2021/07/11 14:01:15;;;;;;;8.50;6.10;;;;;;;25.01;53.61;101494.47;4915493;28;107462;-94
2021/07/11 14:03:40;;;;;;;5.78;5.07;;;;;;;24.92;53.50;101478.00;4931239;28;106712;-93
2021/07/11 14:06:06;;;;;;;7.50;5.45;;;;;;;24.82;53.51;101460.00;4915485;28;107461;-93
2021/07/11 14:08:32;;;;;;;7.60;5.95;;;;;;;24.99;52.49;101479.44;4946053;28;104090;-93
2021/07/11 14:10:59;;;;;;;9.40;5.85;;;;;;;24.89;53.05;101467.84;4930383;28;108906;-95
2021/07/11 14:13:25;;;;;;;7.10;5.53;;;;;;;24.94;53.42;101471.84;4904215;28;106651;-93
2021/07/11 14:15:51;;;;;;;8.82;5.70;;;;;;;25.08;53.87;101505.09;4909471;28;108878;-93
2021/07/11 14:18:21;;;;;;;7.72;5.93;;;;;;;24.86;53.87;101466.09;4917895;28;104194;-93
2021/07/11 14:20:47;;;;;;;7.40;6.00;;;;;;;25.07;53.53;101503.56;4921254;28;107463;-94
2021/07/11 14:23:13;;;;;;;7.10;5.55;;;;;;;24.96;53.64;101481.25;4942480;28;105366;-91
2021/07/11 14:25:40;;;;;;;9.30;5.80;;;;;;;25.08;53.30;101487.50;4913451;28;107856;-94
2021/07/11 14:28:07;;;;;;;7.20;4.93;;;;;;;25.02;54.00;101481.19;4920902;28;106802;-93
2021/07/11 14:30:36;;;;;;;10.65;5.68;;;;;;;25.08;52.93;101493.13;4914490;28;109368;-94
2021/07/11 14:33:07;;;;;;;7.20;5.50;;;;;;;24.84;53.66;101453.88;4934014;28;106717;-93
2021/07/11 14:35:38;;;;;;;7.88;6.40;;;;;;;25.13;53.00;101497.13;4921827;28;107363;-93
2021/07/11 14:38:14;;;;;;;8.20;6.18;;;;;;;24.87;52.91;101450.78;4927952;28;106768;-93
2021/07/11 14:40:39;;;;;;;8.98;6.15;;;;;;;24.89;52.86;101459.41;4920301;28;107715;-94
2021/07/11 14:43:05;;;;;;;10.02;6.57;;;;;;;25.05;52.92;101483.69;4911626;28;106556;-94
2021/07/11 14:45:31;;;;;;;6.72;5.90;;;;;;;25.01;53.25;101483.25;4909337;28;107379;-93
2021/07/11 14:47:58;;;;;;;9.68;6.63;;;;;;;24.98;52.40;101484.28;4930133;28;106793;-94
2021/07/11 14:50:24;;;;;;;8.75;6.93;;;;;;;25.02;52.50;101481.19;4916196;28;107352;-93
2021/07/11 14:52:50;;;;;;;12.07;7.07;;;;;;;24.84;52.10;101454.63;4926035;28;106131;-92
2021/07/11 14:55:15;;;;;;;8.98;6.93;;;;;;;24.83;52.37;101460.78;4940771;28;107433;-92
2021/07/11 14:57:41;;;;;;;8.48;6.80;;;;;;;24.74;52.43;101450.69;4924940;28;106701;-93
2021/07/11 15:00:09;;;;;;;9.75;7.25;;;;;;;24.96;53.16;101475.63;4940679;28;106830;-92
2021/07/11 15:02:35;;;;;;;9.70;7.65;;;;;;;24.69;52.31;101441.09;4940921;28;107444;-93
2021/07/11 15:05:02;;;;;;;10.88;7.68;;;;;;;24.81;51.95;101455.69;4926678;28;107665;-94
2021/07/11 15:07:29;;;;;;;9.52;7.25;;;;;;;24.87;52.45;101464.81;4935513;28;107870;-93
2021/07/11 15:09:56;;;;;;;9.15;7.15;;;;;;;24.68;53.46;101433.19;4940303;28;107745;-92
2021/07/11 15:12:22;;;;;;;11.80;8.15;;;;;;;24.88;52.72;101455.09;4932560;28;106742;-93
2021/07/11 15:14:51;;;;;;;9.32;6.60;;;;;;;24.99;53.52;101474.59;4942446;28;107369;-92
2021/07/11 15:17:21;;;;;;;10.25;7.18;;;;;;;24.90;52.55;101455.31;4923383;28;106604;-92
2021/07/11 15:19:48;;;;;;;9.57;7.05;;;;;;;24.72;52.12;101426.00;4944852;28;107667;-93
2021/07/11 15:22:14;;;;;;;11.70;7.90;;;;;;;24.69;52.39;101418.63;4944561;28;105804;-93
2021/07/11 15:24:40;;;;;;;11.27;6.88;;;;;;;24.88;53.03;101449.50;4953313;28;105012;-93
2021/07/11 15:27:07;;;;;;;10.55;7.55;;;;;;;24.97;52.52;101468.72;4934856;28;104630;-94
2021/07/11 15:29:34;;;;;;;10.77;7.72;;;;;;;24.74;52.93;101431.06;4921446;28;107901;-93
2021/07/11 15:32:00;;;;;;;8.02;7.07;;;;;;;24.90;52.51;101449.72;4908708;28;106030;-93
2021/07/11 15:34:26;;;;;;;8.90;7.20;;;;;;;24.89;52.41;101442.59;4941889;28;107764;-92
2021/07/11 15:36:51;;;;;;;9.07;7.32;;;;;;;24.84;52.54;101432.19;4921514;28;107390;-93
2021/07/11 15:39:17;;;;;;;7.90;7.10;;;;;;;24.84;52.66;101434.97;4934854;28;107184;-93
2021/07/11 15:41:43;;;;;;;9.27;7.13;;;;;;;24.87;52.85;101438.81;4917758;28;106572;-94
2021/07/11 15:44:09;;;;;;;8.23;7.35;;;;;;;24.68;53.14;101405.16;4942403;28;107546;-94
2021/07/11 15:46:35;;;;;;;11.07;7.80;;;;;;;24.67;52.01;101410.00;4918206;28;106653;-95
2021/07/11 15:49:01;;;;;;;8.50;7.40;;;;;;;24.62;52.18;101408.03;4940154;28;107588;-94
2021/07/11 15:51:26;;;;;;;8.02;6.90;;;;;;;24.62;52.31;101396.06;4957421;28;105316;-92
2021/07/11 15:53:52;;;;;;;8.23;6.55;;;;;;;24.65;52.89;101400.59;4955736;28;106175;-92
2021/07/11 15:56:18;;;;;;;11.20;7.15;;;;;;;24.65;52.55;101403.41;4939618;28;106619;-93
2021/07/11 15:58:44;;;;;;;8.57;6.80;;;;;;;24.83;52.88;101422.25;4955711;28;107370;-92
2021/07/11 16:01:09;;;;;;;9.82;7.13;;;;;;;24.85;52.22;101416.88;4951736;28;104822;-91
2021/07/11 16:03:35;;;;;;;7.35;6.65;;;;;;;24.84;52.17;101411.78;4938818;28;107718;-90
2021/07/11 16:06:01;;;;;;;12.43;7.65;;;;;;;24.91;52.36;101428.03;4938808;28;107813;-91
2021/07/11 16:08:27;;;;;;;8.52;7.20;;;;;;;24.91;52.79;101431.59;4920307;28;107597;-92
2021/07/11 16:10:52;;;;;;;9.48;6.90;;;;;;;24.75;52.53;101399.66;4934969;28;107714;-91
2021/07/11 16:13:18;;;;;;;9.82;6.50;;;;;;;24.69;53.27;101376.56;4940091;28;107517;-91
2021/07/11 16:15:44;;;;;;;20.73;7.20;;;;;;;24.73;54.01;101373.44;4924988;28;107310;-92
2021/07/11 16:18:10;;;;;;;8.25;6.22;;;;;;;24.77;53.01;101385.09;4926391;28;107756;-91
2021/07/11 16:20:45;;;;;;;9.70;6.63;;;;;;;24.88;53.13;101401.03;4946065;28;106195;-91
2021/07/11 16:23:13;;;;;;;8.43;6.40;;;;;;;24.79;53.06;101388.91;4946420;28;107502;-92
2021/07/11 16:25:40;;;;;;;7.85;6.55;;;;;;;24.74;52.61;101375.72;4927738;28;107821;-91
2021/07/11 16:28:05;;;;;;;8.10;6.30;;;;;;;24.99;54.06;101410.03;4926177;28;107403;-91
2021/07/11 16:30:35;;;;;;;8.45;6.15;;;;;;;24.84;52.89;101383.72;4922660;28;106583;-92
2021/07/11 16:33:04;;;;;;;7.53;6.72;;;;;;;24.94;53.98;101394.03;4932385;28;107728;-91
2021/07/11 16:35:30;;;;;;;8.50;6.30;;;;;;;24.88;54.40;101373.72;4922190;28;106917;-91
2021/07/11 16:37:55;;;;;;;8.85;6.97;;;;;;;24.86;53.87;101379.13;4952319;28;104955;-92
2021/07/11 16:40:22;;;;;;;9.35;6.05;;;;;;;25.08;53.76;101400.50;4937283;28;107981;-91
2021/07/11 16:42:48;;;;;;;9.35;6.18;;;;;;;24.95;54.42;101375.13;4935070;28;107375;-92
2021/07/11 16:45:16;;;;;;;8.38;6.47;;;;;;;24.93;54.98;101374.94;4918908;28;106273;-91
2021/07/11 16:47:42;;;;;;;9.00;6.72;;;;;;;24.94;54.75;101374.38;4923553;28;107320;-91
2021/07/11 16:50:10;;;;;;;8.05;6.57;;;;;;;24.93;54.13;101375.69;4923663;28;106674;-90
2021/07/11 16:52:36;;;;;;;6.78;5.85;;;;;;;25.06;54.39;101400.25;4925695;28;107536;-94
2021/07/11 16:55:05;;;;;;;8.57;6.80;;;;;;;25.19;54.99;101428.34;4925398;28;107805;-92
2021/07/11 16:57:32;;;;;;;6.70;6.00;;;;;;;25.11;55.54;101405.03;4955103;28;107226;-92
2021/07/11 16:59:59;;;;;;;10.70;7.93;;;;;;;24.94;55.73;101388.41;4947442;28;104698;-91
2021/07/11 17:02:25;;;;;;;8.85;6.53;;;;;;;24.91;55.19;101383.13;4947503;28;107043;-92
2021/07/11 17:04:50;;;;;;;8.85;7.03;;;;;;;25.09;56.11;101413.22;4959482;28;104163;-92
2021/07/11 17:07:16;;;;;;;6.63;6.03;;;;;;;24.99;56.13;101401.63;4939516;28;107051;-92
2021/07/11 17:09:42;;;;;;;8.25;6.60;;;;;;;25.15;56.35;101425.13;4921970;28;106599;-90
2021/07/11 17:12:08;;;;;;;8.25;6.55;;;;;;;24.85;56.16;101376.84;4953100;28;106306;-90
2021/07/11 17:14:34;;;;;;;7.68;6.35;;;;;;;24.97;56.30;101398.56;4938153;28;106793;-93
2021/07/11 17:16:59;;;;;;;8.05;6.68;;;;;;;24.78;56.52;101386.63;4934688;28;107155;-90
2021/07/11 17:19:25;;;;;;;6.72;6.00;;;;;;;24.71;56.11;101395.66;4929596;28;106223;-92
2021/07/11 17:21:51;;;;;;;8.77;6.22;;;;;;;24.81;56.73;101402.38;4936394;28;107155;-91
2021/07/11 17:24:17;;;;;;;7.80;5.95;;;;;;;24.85;57.35;101416.88;4923856;28;106461;-90
2021/07/11 17:26:43;;;;;;;7.35;5.80;;;;;;;24.68;57.32;101405.16;4924114;28;107601;-91
2021/07/11 17:29:09;;;;;;;6.03;5.43;;;;;;;24.79;57.34;101416.19;4938737;28;107547;-93
2021/07/11 17:31:35;;;;;;;6.55;5.78;;;;;;;24.75;57.48;101418.56;4952519;28;108660;-92
2021/07/11 17:34:01;;;;;;;8.52;6.70;;;;;;;24.54;57.08;101386.72;4945340;28;107527;-93
2021/07/11 17:36:27;;;;;;;7.13;6.18;;;;;;;24.63;57.75;101401.13;4944843;28;107318;-92
2021/07/11 17:38:53;;;;;;;7.07;5.60;;;;;;;24.74;57.62;101426.22;4935831;28;106400;-93
2021/07/11 17:41:19;;;;;;;7.40;6.18;;;;;;;24.45;57.80;101380.22;4938138;28;107838;-91
2021/07/11 17:43:45;;;;;;;8.25;5.43;;;;;;;24.69;57.97;101413.03;4939553;28;106206;-92
2021/07/11 17:46:12;;;;;;;6.28;5.60;;;;;;;24.67;57.90;101412.06;4945042;28;105001;-92
2021/07/11 17:48:38;;;;;;;7.60;5.93;;;;;;;24.80;57.68;101418.47;4941766;28;106478;-93
2021/07/11 17:51:03;;;;;;;8.10;5.72;;;;;;;24.85;57.76;101428.09;4949046;28;107495;-93
2021/07/11 17:53:29;;;;;;;9.43;6.18;;;;;;;24.76;57.37;101409.59;4920946;28;107099;-92
2021/07/11 17:55:55;;;;;;;9.48;6.03;;;;;;;24.83;57.86;101427.84;4937418;28;108445;-92
2021/07/11 17:58:21;;;;;;;8.32;5.90;;;;;;;24.83;57.48;101429.91;4911574;28;106582;-92
2021/07/11 18:00:47;;;;;;;7.60;5.75;;;;;;;24.62;57.25;101394.00;4931062;28;108175;-92
2021/07/11 18:03:12;;;;;;;6.05;5.43;;;;;;;24.61;57.73;101386.13;4950325;28;106583;-91
2021/07/11 18:05:38;;;;;;;8.48;5.88;;;;;;;24.67;57.18;101398.03;4955357;28;105933;-92
2021/07/11 18:08:04;;;;;;;7.68;5.72;;;;;;;24.78;57.75;101412.63;4919913;28;107760;-91
2021/07/11 18:10:30;;;;;;;8.52;6.20;;;;;;;24.71;57.13;101412.50;4920318;28;107022;-91
2021/07/11 18:12:56;;;;;;;7.90;6.15;;;;;;;24.77;57.68;101416.72;4915258;28;106579;-90
2021/07/11 18:15:22;;;;;;;10.02;6.85;;;;;;;24.77;57.92;101416.72;4907870;28;108945;-92
2021/07/11 18:17:49;;;;;;;7.70;6.30;;;;;;;24.66;57.47;101402.13;4930101;28;107230;-92
2021/07/11 18:20:16;;;;;;;6.47;5.43;;;;;;;24.56;57.78;101398.16;4923482;28;107588;-94
2021/07/11 18:22:46;;;;;;;8.20;6.03;;;;;;;24.53;58.08;101383.16;4969985;28;108192;-93
2021/07/11 18:25:14;;;;;;;7.72;6.45;;;;;;;24.48;57.83;101379.16;4977024;28;107598;-93
2021/07/11 18:27:41;;;;;;;6.70;5.70;;;;;;;24.46;57.32;101378.94;4924150;28;106206;-93
2021/07/11 18:30:12;;;;;;;7.32;6.18;;;;;;;24.44;57.04;101375.91;4938100;28;108856;-92
2021/07/11 18:32:40;;;;;;;8.07;5.97;;;;;;;24.48;57.50;101381.97;4923513;28;107127;-93
2021/07/11 18:35:10;;;;;;;9.80;6.18;;;;;;;24.46;57.46;101378.94;4927732;28;107231;-92
2021/07/11 18:37:37;;;;;;;12.02;5.80;;;;;;;24.54;57.01;101390.28;4942597;28;106770;-95
2021/07/11 18:40:04;;;;;;;9.43;6.15;;;;;;;24.40;57.71;101372.66;4948121;28;107510;-92
2021/07/11 18:42:31;;;;;;;8.32;6.47;;;;;;;24.38;58.04;101374.47;4962271;28;106987;-92
2021/07/11 18:44:57;;;;;;;10.32;6.18;;;;;;;24.39;57.85;101376.75;4946632;28;108465;-93
2021/07/11 18:47:23;;;;;;;7.85;6.30;;;;;;;24.38;57.11;101369.63;4955705;28;106645;-93
2021/07/11 18:49:49;;;;;;;9.40;6.78;;;;;;;24.33;57.14;101358.47;4952950;28;107682;-92
2021/07/11 18:52:15;;;;;;;7.40;6.32;;;;;;;24.41;57.64;101388.19;4947874;28;107747;-94
2021/07/11 18:54:41;;;;;;;7.07;5.75;;;;;;;24.30;57.48;101370.75;4930617;28;107427;-92
2021/07/11 18:57:07;;;;;;;7.72;6.32;;;;;;;24.34;57.45;101374.00;4918610;28;107965;-94
2021/07/11 18:59:34;;;;;;;8.30;6.75;;;;;;;24.19;57.65;101361.19;4916119;28;107744;-93
2021/07/11 19:02:03;;;;;;;7.03;6.32;;;;;;;24.33;57.70;101387.25;4925518;28;109194;-93
2021/07/11 19:04:29;;;;;;;7.93;6.82;;;;;;;24.24;57.67;101372.84;4935923;28;107658;-94
2021/07/11 19:06:55;;;;;;;10.15;6.82;;;;;;;24.09;57.18;101353.66;4925104;28;105848;-93
2021/07/11 19:09:21;;;;;;;9.55;6.70;;;;;;;24.34;57.95;101400.00;4931153;28;108118;-93
2021/07/11 19:11:56;;;;;;;7.57;6.18;;;;;;;24.29;57.22;101397.25;4921915;28;107749;-94
2021/07/11 19:14:25;;;;;;;8.73;6.88;;;;;;;23.96;57.74;101347.97;4934988;28;108848;-92
2021/07/11 19:16:57;;;;;;;7.18;6.47;;;;;;;24.25;58.39;101402.38;4915918;28;106209;-93
2021/07/11 19:19:23;;;;;;;7.72;6.95;;;;;;;24.03;58.70;101369.78;4932681;28;107862;-93
2021/07/11 19:21:49;;;;;;;10.35;6.80;;;;;;;23.85;58.32;101351.66;4933522;28;106952;-94
2021/07/11 19:24:15;;;;;;;7.55;6.78;;;;;;;23.85;58.58;101360.81;4928197;28;107380;-93
2021/07/11 19:26:42;;;;;;;9.30;6.65;;;;;;;24.04;58.83;101393.72;4926454;28;106990;-93
2021/07/11 19:29:10;;;;;;;10.15;6.88;;;;;;;23.90;58.98;101381.69;4942641;28;107826;-92
2021/07/11 19:31:49;;;;;;;8.27;6.90;;;;;;;24.05;58.71;101409.25;4938953;28;106582;-93
2021/07/11 19:34:14;;;;;;;11.70;7.20;;;;;;;23.87;58.86;101382.69;4950750;28;107181;-93
2021/07/11 19:37:06;;;;;;;9.70;7.05;;;;;;;23.67;58.90;101367.16;4938509;28;106918;-92
2021/07/11 19:39:39;;;;;;;7.78;6.57;;;;;;;23.93;59.14;101402.28;4931421;28;107465;-94
2021/07/11 19:42:43;;;;;;;11.70;7.35;;;;;;;23.88;59.13;101398.97;4928951;28;107751;-94
2021/07/11 19:45:10;;;;;;;8.93;6.75;;;;;;;23.55;60.04;101360.13;4949014;28;104617;-93
2021/07/11 19:47:38;;;;;;;8.75;7.10;;;;;;;23.56;59.83;101370.06;4920848;28;106770;-94
2021/07/11 19:50:06;;;;;;;9.70;7.50;;;;;;;23.49;59.94;101365.03;4920977;28;108035;-93
2021/07/11 19:53:05;;;;;;;12.07;7.80;;;;;;;23.55;59.90;101385.31;4921881;28;104672;-94
2021/07/11 19:55:36;;;;;;;9.48;7.28;;;;;;;23.40;59.87;101360.50;4936343;28;107075;-94
2021/07/11 19:58:02;;;;;;;11.60;7.55;;;;;;;23.36;60.50;101362.09;4907643;28;106002;-93
2021/07/11 20:00:49;;;;;;;7.97;7.10;;;;;;;23.52;59.83;101392.72;4936843;28;108855;-94
2021/07/11 20:03:37;;;;;;;8.88;7.97;;;;;;;23.58;60.63;101407.47;4946636;28;106971;-93
2021/07/11 20:06:09;;;;;;;11.10;7.95;;;;;;;23.24;60.62;101375.44;4954989;28;107686;-94
2021/07/11 20:08:43;;;;;;;8.32;7.15;;;;;;;23.36;61.14;101398.47;4912021;28;106714;-93
2021/07/11 20:11:10;;;;;;;10.07;8.13;;;;;;;23.20;61.32;101364.53;4931994;28;107866;-93
2021/07/11 20:13:39;;;;;;;10.45;8.27;;;;;;;23.30;60.91;101383.78;4936608;28;106824;-93
2021/07/11 20:16:11;;;;;;;9.55;7.32;;;;;;;23.18;61.68;101366.31;4936194;28;107176;-94
2021/07/11 20:18:38;;;;;;;8.52;7.38;;;;;;;23.24;61.31;101373.41;4903823;28;106204;-94
2021/07/11 20:21:24;;;;;;;9.80;7.53;;;;;;;23.12;61.39;101363.56;4933267;28;108329;-93
2021/07/11 20:23:51;;;;;;;11.75;8.27;;;;;;;23.27;61.83;101386.34;4925849;28;107703;-92
2021/07/11 20:26:29;;;;;;;13.02;8.23;;;;;;;23.20;61.83;101380.56;4914430;28;107394;-93
2021/07/11 20:28:55;;;;;;;10.23;7.47;;;;;;;23.04;61.83;101362.63;4913023;28;106600;-93
2021/07/11 20:31:34;;;;;;;11.93;7.75;;;;;;;23.14;62.01;101388.22;4929381;28;107398;-94
2021/07/11 20:34:04;;;;;;;8.93;7.05;;;;;;;23.17;62.62;101393.53;4917915;28;106623;-95
2021/07/11 20:36:36;;;;;;;12.07;7.88;;;;;;;23.09;62.53;101381.41;4937089;28;108410;-93
2021/07/11 20:39:04;;;;;;;9.35;7.50;;;;;;;22.96;62.41;101358.91;4923436;28;107377;-94
2021/07/11 20:41:31;;;;;;;9.10;7.97;;;;;;;22.91;63.11;101354.84;4935715;28;107407;-94
2021/07/11 20:44:11;;;;;;;11.85;7.97;;;;;;;23.03;62.93;101369.50;4924994;28;106364;-93
2021/07/11 20:47:05;;;;;;;9.20;7.88;;;;;;;23.17;62.83;101387.94;4940815;28;105412;-93
2021/07/11 20:49:37;;;;;;;9.57;7.18;;;;;;;23.09;63.24;101381.41;4926523;28;106636;-93
2021/07/11 20:52:43;;;;;;;9.52;7.60;;;;;;;22.85;63.70;101347.78;4939810;28;107404;-93
2021/07/11 20:55:15;;;;;;;8.40;7.43;;;;;;;22.80;63.95;101340.16;4939359;28;107676;-93
2021/07/11 20:57:41;;;;;;;9.40;7.88;;;;;;;22.82;63.66;101346.78;4934940;28;107600;-93
2021/07/11 21:00:08;;;;;;;13.48;7.90;;;;;;;22.77;63.78;101339.16;4934009;28;106251;-94
2021/07/11 21:02:34;;;;;;;10.02;7.65;;;;;;;22.98;63.96;101367.53;4922555;28;106961;-95
2021/07/11 21:05:18;;;;;;;9.95;7.95;;;;;;;22.90;63.78;101363.75;4936712;28;106478;-93
2021/07/11 21:07:44;;;;;;;11.73;7.38;;;;;;;22.96;64.42;101367.28;4935554;28;108039;-93
2021/07/11 21:10:10;;;;;;;8.73;7.70;;;;;;;22.76;63.92;101336.91;4917519;28;107650;-93
2021/07/11 21:12:36;;;;;;;12.10;7.97;;;;;;;22.99;64.87;101377.44;4933860;28;108267;-94
2021/07/11 21:15:03;;;;;;;9.35;7.63;;;;;;;22.95;64.61;101372.13;4911915;28;107658;-91
2021/07/11 21:17:32;;;;;;;10.52;7.32;;;;;;;22.95;64.25;101366.53;4924439;28;107274;-93
2021/07/11 21:19:57;;;;;;;11.13;7.95;;;;;;;22.76;64.23;101334.09;4915116;28;107487;-92
2021/07/11 21:22:23;;;;;;;9.75;7.60;;;;;;;22.81;64.32;101344.47;4921384;28;108256;-92
2021/07/11 21:24:55;;;;;;;9.82;7.47;;;;;;;22.93;64.85;101354.31;4932273;28;107114;-93
2021/07/11 21:27:31;;;;;;;11.80;7.75;;;;;;;22.79;63.91;101324.66;4926235;28;104724;-92
2021/07/11 21:30:06;;;;;;;11.48;8.27;;;;;;;22.73;64.25;101327.50;4912307;28;107751;-94
2021/07/11 21:32:32;;;;;;;8.73;7.70;;;;;;;22.71;64.42;101321.66;4934857;28;105553;-92
2021/07/11 21:35:00;;;;;;;10.23;7.13;;;;;;;22.77;64.15;101332.81;4933574;28;106226;-91
2021/07/11 21:37:26;;;;;;;8.52;7.70;;;;;;;22.86;64.02;101352.84;4910689;28;107877;-93
2021/07/11 21:39:52;;;;;;;11.43;7.55;;;;;;;22.75;64.18;101329.78;4926709;28;106625;-93
2021/07/11 21:42:18;;;;;;;11.07;7.43;;;;;;;22.80;63.97;101340.16;4931797;28;107049;-93
2021/07/11 21:44:44;;;;;;;8.82;7.13;;;;;;;22.92;64.14;101358.41;4918820;28;107334;-94
2021/07/11 21:47:12;;;;;;;10.73;7.75;;;;;;;22.68;63.88;101322.69;4918432;28;107460;-93
2021/07/11 21:49:41;;;;;;;10.90;6.78;;;;;;;22.93;63.79;101365.50;4918781;28;106192;-94
2021/07/11 21:52:07;;;;;;;7.95;7.15;;;;;;;22.91;63.95;101354.84;4955875;28;107871;-91
2021/07/11 21:54:33;;;;;;;8.45;6.55;;;;;;;22.78;63.52;101339.94;4934000;28;106798;-93
2021/07/11 21:57:13;;;;;;;8.55;6.97;;;;;;;22.63;63.88;101313.06;4935477;28;108578;-93
2021/07/11 21:59:42;;;;;;;8.50;7.20;;;;;;;22.80;63.26;101343.72;4933526;28;104860;-93
2021/07/11 22:02:12;;;;;;;8.55;6.90;;;;;;;22.89;63.43;101356.63;4931835;28;106756;-93
2021/07/11 22:04:40;;;;;;;9.27;6.68;;;;;;;22.82;63.24;101344.00;4938472;28;106208;-92
2021/07/11 22:07:06;;;;;;;10.23;6.65;;;;;;;22.75;63.24;101330.53;4913475;28;107542;-93
2021/07/11 22:09:31;;;;;;;7.50;6.38;;;;;;;22.73;63.30;101330.31;4912638;28;107022;-93
2021/07/11 22:11:59;;;;;;;8.75;6.90;;;;;;;22.76;63.14;101331.31;4932825;28;108569;-94
2021/07/11 22:14:24;;;;;;;7.43;6.68;;;;;;;22.90;63.27;101355.38;4928561;28;107502;-93
2021/07/11 22:16:50;;;;;;;10.55;7.00;;;;;;;22.76;62.85;101328.50;4938959;28;107410;-92
2021/07/11 22:19:19;;;;;;;10.43;6.82;;;;;;;22.79;63.39;101325.44;4913374;28;106522;-92
2021/07/11 22:21:44;;;;;;;9.05;6.95;;;;;;;22.71;63.44;101324.44;4932087;28;108769;-94
2021/07/11 22:24:11;;;;;;;10.90;7.07;;;;;;;22.88;62.75;101343.94;4932011;28;106769;-92
2021/07/11 22:26:37;;;;;;;10.88;6.60;;;;;;;22.81;63.07;101336.09;4943596;28;106287;-93
2021/07/11 22:29:03;;;;;;;9.10;6.85;;;;;;;22.77;63.31;101330.78;4913902;28;106664;-92
2021/07/11 22:31:29;;;;;;;9.00;7.28;;;;;;;22.71;63.71;101316.06;4947774;28;107485;-93
2021/07/11 22:33:55;;;;;;;8.18;6.57;;;;;;;22.72;63.94;101325.25;4922844;28;106705;-93
2021/07/11 22:36:24;;;;;;;8.63;6.93;;;;;;;22.79;63.56;101338.66;4911831;28;108427;-91
2021/07/11 22:38:50;;;;;;;11.52;6.95;;;;;;;22.87;64.25;101350.81;4952834;28;106342;-94
2021/07/11 22:41:15;;;;;;;10.48;7.18;;;;;;;22.64;63.93;101306.19;4911655;28;108167;-93
2021/07/11 22:43:41;;;;;;;10.48;7.10;;;;;;;22.89;64.22;101356.63;4932804;28;107381;-93
2021/07/11 22:46:07;;;;;;;11.93;7.28;;;;;;;22.84;64.54;101343.47;4934699;28;107336;-93
2021/07/11 22:48:32;;;;;;;9.85;7.25;;;;;;;22.72;64.58;101325.25;4949924;28;104844;-94
2021/07/11 22:50:58;;;;;;;12.55;7.15;;;;;;;22.59;64.46;101307.00;4933803;28;107497;-93
2021/07/11 22:53:27;;;;;;;8.93;7.68;;;;;;;22.64;64.83;101311.78;4928108;28;107770;-91
2021/07/11 22:55:53;;;;;;;10.73;7.93;;;;;;;22.60;65.12;101302.19;4921570;28;107149;-92
2021/07/11 22:58:19;;;;;;;9.30;8.15;;;;;;;22.75;64.95;101332.59;4948296;28;104726;-94